createdAt,value
2022-12-27T00:01:19.023Z,3.85
2022-12-27T00:03:45.934Z,3.82
2022-12-27T00:06:20.272Z,3.85
2022-12-27T00:08:47.135Z,3.87
2022-12-27T00:11:16.635Z,3.85
2022-12-27T00:13:43.256Z,3.79
2022-12-27T00:16:13.628Z,3.76
2022-12-27T00:18:40.945Z,3.71
2022-12-27T00:21:10.189Z,3.74
2022-12-27T00:23:39.523Z,3.75
2022-12-27T00:26:13.306Z,3.76
2022-12-27T00:28:39.807Z,3.80
2022-12-27T00:31:06.963Z,3.79
2022-12-27T00:33:35.557Z,3.83
2022-12-27T00:36:03.712Z,3.77
2022-12-27T00:38:31.950Z,3.75
2022-12-27T00:40:59.104Z,3.68
2022-12-27T00:43:25.601Z,3.66
2022-12-27T00:45:52.433Z,3.68
2022-12-27T00:48:18.975Z,3.65
2022-12-27T00:50:45.805Z,3.66
2022-12-27T00:53:12.830Z,3.72
2022-12-27T00:55:41.827Z,3.76
2022-12-27T00:58:08.278Z,3.77
2022-12-27T01:00:35.560Z,3.78
2022-12-27T01:03:02.274Z,3.74
2022-12-27T01:05:28.818Z,3.71
2022-12-27T01:07:55.399Z,3.65
2022-12-27T01:10:21.871Z,3.63
2022-12-27T01:12:48.303Z,3.58
2022-12-27T01:15:14.791Z,3.55
2022-12-27T01:17:41.244Z,3.52
2022-12-27T01:20:08.339Z,3.55
2022-12-27T01:22:34.723Z,3.49
2022-12-27T01:25:01.134Z,3.51
2022-12-27T01:27:27.784Z,3.52
2022-12-27T01:29:54.361Z,3.52
2022-12-27T01:32:21.207Z,3.50
2022-12-27T01:34:47.679Z,3.53
2022-12-27T01:37:21.336Z,3.53
2022-12-27T01:39:47.769Z,3.57
2022-12-27T01:42:35.286Z,3.60
2022-12-27T01:45:02.756Z,3.62
2022-12-27T01:47:45.586Z,3.64
2022-12-27T01:50:14.920Z,3.68
2022-12-27T01:52:46.744Z,3.68
2022-12-27T01:55:16.154Z,3.71
2022-12-27T01:57:42.631Z,3.72
2022-12-27T02:00:09.940Z,3.73
2022-12-27T02:02:37.055Z,3.73
2022-12-27T02:05:04.036Z,3.74
2022-12-27T02:08:03.651Z,3.67
2022-12-27T02:10:31.411Z,3.71
2022-12-27T02:12:59.459Z,3.66
2022-12-27T02:15:26.008Z,3.68
2022-12-27T02:17:52.571Z,3.67
2022-12-27T02:20:25.550Z,3.71
2022-12-27T02:23:26.300Z,3.68
2022-12-27T02:26:17.767Z,3.66
2022-12-27T02:29:09.293Z,3.66
2022-12-27T02:31:46.038Z,3.67
2022-12-27T02:34:28.790Z,3.64
2022-12-27T02:37:01.062Z,3.61
2022-12-27T02:39:29.566Z,3.62
2022-12-27T02:42:15.674Z,3.65
2022-12-27T02:45:00.833Z,3.68
2022-12-27T02:47:47.223Z,3.71
2022-12-27T02:50:33.546Z,3.71
2022-12-27T02:53:17.038Z,3.69
2022-12-27T02:56:37.655Z,3.61
2022-12-27T02:59:12.779Z,3.60
2022-12-27T03:02:11.662Z,3.57
2022-12-27T03:05:01.367Z,3.58
2022-12-27T03:08:02.016Z,3.64
2022-12-27T03:10:58.933Z,3.64
2022-12-27T03:14:02.814Z,3.63
2022-12-27T03:16:43.087Z,3.66
2022-12-27T03:20:02.311Z,3.63
2022-12-27T03:22:49.473Z,3.63
2022-12-27T03:25:28.685Z,3.64
2022-12-27T03:28:28.508Z,3.71
2022-12-27T03:31:27.568Z,3.75
2022-12-27T03:34:04.540Z,3.77
2022-12-27T03:36:52.623Z,3.79
2022-12-27T03:39:31.033Z,3.81
2022-12-27T03:42:35.821Z,3.85
2022-12-27T03:45:02.467Z,3.88
2022-12-27T03:47:48.903Z,3.89
2022-12-27T03:50:25.236Z,3.86
2022-12-27T03:53:00.204Z,3.90
2022-12-27T03:55:32.984Z,3.91
2022-12-27T03:58:00.032Z,3.90
2022-12-27T04:00:26.541Z,3.89
2022-12-27T04:02:53.153Z,3.94
2022-12-27T04:05:19.673Z,3.97
2022-12-27T04:08:04.725Z,3.95
2022-12-27T04:10:49.537Z,3.95
2022-12-27T04:13:34.235Z,4.00
2022-12-27T04:16:19.068Z,4.02
2022-12-27T04:19:03.812Z,4.02
2022-12-27T04:21:48.615Z,3.99
2022-12-27T04:24:33.411Z,4.00
2022-12-27T04:27:18.305Z,3.98
2022-12-27T04:30:03.073Z,4.00
2022-12-27T04:32:48.113Z,4.02
2022-12-27T04:35:14.615Z,4.07
2022-12-27T04:37:41.032Z,4.06
2022-12-27T04:40:27.583Z,4.05
2022-12-27T04:43:12.421Z,4.11
2022-12-27T04:45:57.257Z,4.12
2022-12-27T04:48:46.171Z,4.12
2022-12-27T04:51:31.014Z,4.18
2022-12-27T04:54:15.862Z,4.19
2022-12-27T04:56:42.276Z,4.18
2022-12-27T04:59:27.185Z,4.21
2022-12-27T05:02:06.044Z,4.20
2022-12-27T05:04:35.400Z,4.18
2022-12-27T05:07:22.079Z,4.21
2022-12-27T05:10:07.243Z,4.21
2022-12-27T05:12:52.091Z,4.17
2022-12-27T05:15:18.540Z,4.22
2022-12-27T05:17:45.040Z,4.23
2022-12-27T05:20:11.608Z,4.27
2022-12-27T05:22:56.725Z,4.32
2022-12-27T05:25:35.524Z,4.36
2022-12-27T05:28:04.665Z,4.39
2022-12-27T05:30:39.395Z,4.41
2022-12-27T05:33:06.847Z,4.40
2022-12-27T05:35:36.140Z,4.41
2022-12-27T05:38:02.743Z,4.42
2022-12-27T05:40:29.318Z,4.41
2022-12-27T05:42:58.921Z,4.42
2022-12-27T05:45:25.454Z,4.45
2022-12-27T05:47:51.980Z,4.47
2022-12-27T05:50:18.779Z,4.47
2022-12-27T05:52:45.246Z,4.46
2022-12-27T05:55:12.782Z,4.48
2022-12-27T05:57:39.359Z,4.46
2022-12-27T06:00:06.497Z,4.46
2022-12-27T06:02:33.103Z,4.48
2022-12-27T06:04:59.648Z,4.45
2022-12-27T06:07:26.098Z,4.41
2022-12-27T06:09:52.577Z,4.39
2022-12-27T06:12:19.024Z,4.42
2022-12-27T06:14:45.464Z,4.40
2022-12-27T06:17:11.891Z,4.39
2022-12-27T06:19:38.349Z,4.40
2022-12-27T06:22:04.764Z,4.42
2022-12-27T06:24:31.178Z,4.41
2022-12-27T06:26:57.593Z,4.37
2022-12-27T06:29:24.023Z,4.34
2022-12-27T06:31:50.610Z,4.35
2022-12-27T06:34:18.174Z,4.35
2022-12-27T06:36:50.092Z,4.31
2022-12-27T06:39:17.701Z,4.28
2022-12-27T06:41:44.356Z,4.25
2022-12-27T06:44:10.976Z,4.20
2022-12-27T06:46:38.193Z,4.16
2022-12-27T06:49:04.871Z,4.13
2022-12-27T06:51:31.338Z,4.11
2022-12-27T06:53:57.830Z,4.07
2022-12-27T06:56:24.361Z,4.08
2022-12-27T06:58:51.689Z,4.06
2022-12-27T07:01:26.888Z,4.04
2022-12-27T07:03:55.849Z,4.05
2022-12-27T07:06:23.644Z,4.04
2022-12-27T07:08:51.265Z,4.01
2022-12-27T07:11:19.763Z,4.00
2022-12-27T07:13:51.382Z,3.96
2022-12-27T07:16:20.565Z,3.97
2022-12-27T07:18:49.794Z,3.95
2022-12-27T07:21:19.495Z,3.93
2022-12-27T07:23:46.318Z,3.99
2022-12-27T07:26:19.160Z,3.95
2022-12-27T07:28:45.615Z,3.94
2022-12-27T07:31:17.885Z,3.92
2022-12-27T07:33:45.139Z,3.88
2022-12-27T07:36:17.981Z,3.88
2022-12-27T07:38:45.057Z,3.93
2022-12-27T07:41:12.891Z,3.96
2022-12-27T07:43:39.707Z,3.94
2022-12-27T07:46:08.573Z,3.95
2022-12-27T07:48:35.630Z,3.98
2022-12-27T07:51:02.429Z,3.98
2022-12-27T07:53:28.955Z,3.96
2022-12-27T07:55:58.590Z,3.95
2022-12-27T07:58:25.506Z,3.93
2022-12-27T08:00:52.626Z,3.92
2022-12-27T08:03:19.622Z,3.91
2022-12-27T08:05:48.227Z,3.88
2022-12-27T08:08:17.324Z,3.88
2022-12-27T08:10:44.107Z,3.84
2022-12-27T08:13:10.597Z,3.83
2022-12-27T08:15:38.834Z,3.84
2022-12-27T08:18:05.426Z,3.81
2022-12-27T08:20:31.978Z,3.81
2022-12-27T08:22:58.684Z,3.81
2022-12-27T08:25:25.542Z,3.82
2022-12-27T08:27:52.094Z,3.83
2022-12-27T08:30:18.894Z,3.85
2022-12-27T08:32:45.383Z,3.87
2022-12-27T08:35:50.233Z,3.87
2022-12-27T08:38:01.792Z,3.93
2022-12-27T08:40:28.270Z,3.97
2022-12-27T08:42:54.702Z,3.99
2022-12-27T08:45:21.132Z,3.99
2022-12-27T08:47:47.547Z,4.05
2022-12-27T08:50:13.993Z,4.08
2022-12-27T08:52:40.421Z,4.09
2022-12-27T08:55:07.147Z,4.11
2022-12-27T08:57:34.363Z,4.10
2022-12-27T09:00:00.948Z,4.10
2022-12-27T09:02:27.464Z,4.09
2022-12-27T09:04:54.061Z,4.11
2022-12-27T09:07:20.503Z,4.19
2022-12-27T09:09:47.516Z,4.31
2022-12-27T09:12:14.068Z,4.39
2022-12-27T09:14:40.614Z,4.44
2022-12-27T09:17:09.681Z,4.44
2022-12-27T09:19:36.735Z,4.46
2022-12-27T09:22:03.539Z,4.49
2022-12-27T09:24:30.067Z,4.60
2022-12-27T09:26:56.562Z,4.67
2022-12-27T09:29:23.119Z,4.64
2022-12-27T09:31:49.622Z,4.65
2022-12-27T09:34:16.074Z,4.65
2022-12-27T09:36:42.620Z,4.70
2022-12-27T09:39:12.222Z,4.78
2022-12-27T09:45:03.970Z,4.84
2022-12-27T09:47:45.986Z,4.87
2022-12-27T09:50:25.882Z,4.96
2022-12-27T09:53:17.162Z,4.98
2022-12-27T09:55:48.420Z,5.07
2022-12-27T09:58:23.065Z,5.07
2022-12-27T10:00:52.942Z,5.14
2022-12-27T10:03:25.483Z,5.12
2022-12-27T10:06:00.287Z,5.19
2022-12-27T10:08:52.591Z,5.18
2022-12-27T10:11:57.836Z,5.25
2022-12-27T10:14:43.223Z,5.31
2022-12-27T10:17:18.252Z,5.30
2022-12-27T10:20:24.491Z,5.34
2022-12-27T10:23:05.861Z,5.38
2022-12-27T10:25:35.442Z,5.49
2022-12-27T10:28:13.851Z,5.53
2022-12-27T10:30:40.463Z,5.60
2022-12-27T10:33:16.112Z,5.58
2022-12-27T10:35:42.729Z,5.62
2022-12-27T10:38:11.499Z,5.62
2022-12-27T10:40:47.355Z,5.61
2022-12-27T10:43:24.564Z,5.60
2022-12-27T10:45:51.195Z,5.62
2022-12-27T10:48:47.409Z,5.64
2022-12-27T10:51:16.406Z,5.68
2022-12-27T10:53:45.819Z,5.65
2022-12-27T10:56:12.245Z,5.72
2022-12-27T10:58:44.724Z,5.71
2022-12-27T11:01:25.437Z,5.70
2022-12-27T11:03:53.041Z,5.73
2022-12-27T11:06:21.629Z,5.89
2022-12-27T11:08:48.821Z,5.99
2022-12-27T11:11:26.879Z,5.97
2022-12-27T11:14:10.274Z,6.03
2022-12-27T11:16:37.435Z,6.11
2022-12-27T11:19:04.453Z,6.11
2022-12-27T11:21:31.846Z,6.13
2022-12-27T11:24:00.888Z,6.08
2022-12-27T11:26:33.767Z,6.12
2022-12-27T11:29:01.696Z,6.15
2022-12-27T11:31:32.787Z,6.18
2022-12-27T11:34:05.631Z,6.21
2022-12-27T11:36:37.295Z,6.18
2022-12-27T11:39:04.712Z,6.24
2022-12-27T11:41:50.048Z,6.27
2022-12-27T11:44:28.193Z,6.35
2022-12-27T11:47:12.234Z,6.30
2022-12-27T11:50:02.902Z,6.31
2022-12-27T11:52:51.130Z,6.35
2022-12-27T11:55:31.070Z,6.39
2022-12-27T11:58:45.525Z,6.44
2022-12-27T12:01:17.973Z,6.44
2022-12-27T12:03:59.240Z,6.44
2022-12-27T12:06:34.851Z,6.44
2022-12-27T12:09:04.299Z,6.46
2022-12-27T12:11:55.166Z,6.48
2022-12-27T12:14:49.882Z,6.43
2022-12-27T12:17:23.205Z,6.47
2022-12-27T12:20:11.532Z,6.43
2022-12-27T12:22:54.784Z,6.40
2022-12-27T12:25:46.197Z,6.40
2022-12-27T12:28:59.766Z,6.41
2022-12-27T12:32:15.204Z,6.48
2022-12-27T12:35:14.725Z,6.53
2022-12-27T12:38:16.701Z,6.54
2022-12-27T12:41:07.862Z,6.56
2022-12-27T12:43:49.548Z,6.52
2022-12-27T12:46:51.329Z,6.57
2022-12-27T12:49:23.881Z,6.57
2022-12-27T12:52:29.411Z,6.56
2022-12-27T12:55:19.856Z,6.50
2022-12-27T12:57:55.629Z,6.57
2022-12-27T13:00:25.573Z,6.52
2022-12-27T13:03:10.507Z,6.53
2022-12-27T13:05:58.256Z,6.56
2022-12-27T13:08:52.905Z,6.56
2022-12-27T13:11:38.002Z,6.61
2022-12-27T13:14:25.584Z,6.64
2022-12-27T13:17:04.072Z,6.62
2022-12-27T13:20:01.287Z,6.60
2022-12-27T13:22:46.786Z,6.62
2022-12-27T13:25:19.554Z,6.65
2022-12-27T13:28:05.759Z,6.60
2022-12-27T13:31:06.468Z,6.53
2022-12-27T13:34:06.445Z,6.57
2022-12-27T13:36:43.733Z,6.50
2022-12-27T13:39:38.904Z,6.51
2022-12-27T13:42:51.467Z,6.57
2022-12-27T13:45:39.076Z,6.55
2022-12-27T13:48:24.328Z,6.51
2022-12-27T13:51:04.561Z,6.61
2022-12-27T13:54:00.471Z,6.61
2022-12-27T13:59:34.699Z,6.67
2022-12-27T14:02:10.386Z,6.71
2022-12-27T14:05:07.594Z,6.68
2022-12-27T14:08:03.604Z,6.60
2022-12-27T14:10:43.774Z,6.55
2022-12-27T14:13:11.994Z,6.61
2022-12-27T14:16:04.826Z,6.54
2022-12-27T14:18:34.286Z,6.50
2022-12-27T14:21:00.682Z,6.51
2022-12-27T14:23:37.223Z,6.45
2022-12-27T14:26:40.753Z,6.42
2022-12-27T14:29:19.366Z,6.41
2022-12-27T14:32:07.290Z,6.41
2022-12-27T14:35:12.301Z,6.41
2022-12-27T14:38:11.750Z,6.41
2022-12-27T14:40:58.643Z,6.39
2022-12-27T14:44:00.081Z,6.42
2022-12-27T14:46:59.743Z,6.46
2022-12-27T14:49:43.353Z,6.42
2022-12-27T14:52:37.950Z,6.37
2022-12-27T14:55:16.546Z,6.32
2022-12-27T14:58:12.699Z,6.22
2022-12-27T15:01:24.187Z,6.18
2022-12-27T15:04:18.946Z,6.13
2022-12-27T15:07:08.004Z,6.09
2022-12-27T15:09:46.871Z,6.07
2022-12-27T15:12:36.960Z,6.02
2022-12-27T15:15:43.041Z,6.01
2022-12-27T15:18:15.816Z,6.01
2022-12-27T15:21:10.278Z,6.02
2022-12-27T15:24:05.598Z,5.97
2022-12-27T15:26:40.772Z,6.00
2022-12-27T15:29:16.576Z,6.07
2022-12-27T15:31:46.048Z,6.11
2022-12-27T15:34:31.325Z,6.14
2022-12-27T15:36:58.284Z,6.08
2022-12-27T15:39:33.803Z,6.05
2022-12-27T15:42:19.189Z,6.04
2022-12-27T15:45:07.440Z,6.03
2022-12-27T15:47:47.086Z,6.13
2022-12-27T15:50:26.528Z,6.17
2022-12-27T15:53:16.482Z,6.22
2022-12-27T15:56:17.085Z,6.23
2022-12-27T15:58:43.975Z,6.28
2022-12-27T16:01:23.625Z,6.19
2022-12-27T16:03:53.442Z,6.24
2022-12-27T16:06:35.214Z,6.35
2022-12-27T16:09:31.091Z,6.32
2022-12-27T16:12:00.554Z,6.25
2022-12-27T16:14:31.080Z,6.26
2022-12-27T16:17:20.763Z,6.23
2022-12-27T16:20:02.993Z,6.19
2022-12-27T16:22:42.833Z,6.18
2022-12-27T16:25:33.630Z,6.13
2022-12-27T16:28:23.905Z,6.11
2022-12-27T16:30:52.627Z,6.09
2022-12-27T16:33:28.374Z,6.15
2022-12-27T16:36:06.681Z,6.12
2022-12-27T16:38:34.811Z,6.10
2022-12-27T16:41:29.771Z,6.04
2022-12-27T16:44:02.366Z,6.06
2022-12-27T16:46:52.197Z,6.04
2022-12-27T16:49:37.145Z,6.01
2022-12-27T16:52:12.576Z,6.01
2022-12-27T16:55:00.979Z,5.97
2022-12-27T16:57:27.358Z,5.93
2022-12-27T16:59:58.585Z,5.90
2022-12-27T17:02:33.308Z,5.82
2022-12-27T17:05:01.118Z,5.76
2022-12-27T17:07:52.882Z,5.73
2022-12-27T17:10:28.519Z,5.70
2022-12-27T17:12:59.697Z,5.66
2022-12-27T17:15:27.181Z,5.63
2022-12-27T17:17:59.715Z,5.60
2022-12-27T17:20:26.355Z,5.58
2022-12-27T17:22:57.525Z,5.59
2022-12-27T17:25:44.619Z,5.54
2022-12-27T17:28:19.387Z,5.52
2022-12-27T17:31:11.980Z,5.48
2022-12-27T17:34:19.864Z,5.49
2022-12-27T17:37:01.110Z,5.44
2022-12-27T17:39:50.619Z,5.41
2022-12-27T17:42:48.988Z,5.37
2022-12-27T17:45:31.010Z,5.36
2022-12-27T17:48:03.707Z,5.38
2022-12-27T17:50:31.029Z,5.33
2022-12-27T17:53:28.461Z,5.33
2022-12-27T17:56:30.467Z,5.35
2022-12-27T17:59:06.229Z,5.31
2022-12-27T18:01:35.888Z,5.27
2022-12-27T18:04:04.568Z,5.24
2022-12-27T18:06:31.445Z,5.21
2022-12-27T18:08:58.147Z,5.18
2022-12-27T18:11:28.145Z,5.16
2022-12-27T18:13:58.824Z,5.16
2022-12-27T18:16:37.542Z,5.14
2022-12-27T18:19:04.487Z,5.15
2022-12-27T18:21:31.448Z,5.13
2022-12-27T18:23:58.275Z,5.10
2022-12-27T18:26:37.431Z,5.08
2022-12-27T18:29:05.338Z,5.08
2022-12-27T18:31:35.838Z,5.09
2022-12-27T18:34:17.346Z,5.09
2022-12-27T18:36:50.424Z,5.08
2022-12-27T18:39:30.154Z,5.08
2022-12-27T18:41:58.152Z,5.04
2022-12-27T18:44:29.412Z,5.04
2022-12-27T18:47:00.324Z,5.03
2022-12-27T18:49:34.753Z,5.02
2022-12-27T18:52:10.919Z,4.97
2022-12-27T18:54:37.555Z,4.94
2022-12-27T18:57:07.175Z,4.95
2022-12-27T18:59:36.058Z,4.94
2022-12-27T19:02:24.075Z,4.93
2022-12-27T19:05:18.831Z,4.90
2022-12-27T19:08:02.019Z,4.88
2022-12-27T19:10:30.867Z,4.85
2022-12-27T19:12:57.619Z,4.85
2022-12-27T19:15:24.913Z,4.82
2022-12-27T19:17:55.151Z,4.81
2022-12-27T19:20:32.345Z,4.79
2022-12-27T19:23:05.483Z,4.80
2022-12-27T19:25:35.001Z,4.79
2022-12-27T19:28:10.461Z,4.77
2022-12-27T19:31:03.959Z,4.77
2022-12-27T19:33:34.739Z,4.79
2022-12-27T19:36:03.660Z,4.78
2022-12-27T19:38:33.299Z,4.74
2022-12-27T19:41:03.926Z,4.73
2022-12-27T19:43:37.627Z,4.72
2022-12-27T19:46:04.383Z,4.72
2022-12-27T19:48:30.948Z,4.72
2022-12-27T19:50:58.126Z,4.69
2022-12-27T19:53:30.961Z,4.68
2022-12-27T19:55:58.331Z,4.64
2022-12-27T19:58:29.652Z,4.65
2022-12-27T20:00:57.422Z,4.61
2022-12-27T20:03:24.281Z,4.57
2022-12-27T20:06:11.796Z,4.54
2022-12-27T20:08:43.927Z,4.51
2022-12-27T20:11:16.173Z,4.54
2022-12-27T20:13:42.652Z,4.52
2022-12-27T20:16:14.570Z,4.50
2022-12-27T20:18:42.087Z,4.50
2022-12-27T20:21:13.258Z,4.47
2022-12-27T20:23:39.828Z,4.46
2022-12-27T20:26:06.403Z,4.44
2022-12-27T20:28:33.565Z,4.41
2022-12-27T20:31:04.938Z,4.37
2022-12-27T20:33:31.417Z,4.35
2022-12-27T20:35:58.522Z,4.30
2022-12-27T20:38:26.212Z,4.29
2022-12-27T20:40:52.883Z,4.28
2022-12-27T20:43:19.523Z,4.25
2022-12-27T20:45:46.484Z,4.25
2022-12-27T20:48:13.365Z,4.22
2022-12-27T20:50:40.931Z,4.23
2022-12-27T20:53:07.685Z,4.21
2022-12-27T20:55:34.374Z,4.19
2022-12-27T20:58:01.525Z,4.19
2022-12-27T21:00:28.366Z,4.17
2022-12-27T21:02:54.944Z,4.18
2022-12-27T21:05:21.533Z,4.21
2022-12-27T21:07:48.024Z,4.19
2022-12-27T21:10:14.965Z,4.22
2022-12-27T21:12:41.408Z,4.20
2022-12-27T21:15:08.620Z,4.20
2022-12-27T21:17:35.268Z,4.19
2022-12-27T21:20:01.833Z,4.18
2022-12-27T21:22:28.304Z,4.16
2022-12-27T21:24:54.729Z,4.17
2022-12-27T21:27:21.198Z,4.18
2022-12-27T21:29:47.658Z,4.19
2022-12-27T21:32:14.145Z,4.21
2022-12-27T21:34:41.220Z,4.21
2022-12-27T21:37:13.073Z,4.22
2022-12-27T21:39:40.155Z,4.21
2022-12-27T21:42:06.728Z,4.21
2022-12-27T21:44:35.341Z,4.21
2022-12-27T21:47:01.947Z,4.22
2022-12-27T21:49:28.400Z,4.21
2022-12-27T21:51:55.731Z,4.23
2022-12-27T21:54:22.219Z,4.23
2022-12-27T21:56:48.816Z,4.21
2022-12-27T21:59:15.325Z,4.21
2022-12-27T22:01:52.099Z,4.23
2022-12-27T22:04:20.956Z,4.24
2022-12-27T22:06:48.120Z,4.24
2022-12-27T22:09:15.632Z,4.23
2022-12-27T22:11:42.263Z,4.27
2022-12-27T22:14:08.857Z,4.29
2022-12-27T22:16:37.876Z,4.28
2022-12-27T22:19:12.523Z,4.28
2022-12-27T22:21:40.898Z,4.27
2022-12-27T22:24:10.629Z,4.28
2022-12-27T22:26:37.614Z,4.28
2022-12-27T22:29:05.304Z,4.28
2022-12-27T22:31:38.034Z,4.27
2022-12-27T22:34:05.463Z,4.25
2022-12-27T22:36:32.000Z,4.25
2022-12-27T22:38:59.437Z,4.25
2022-12-27T22:41:28.456Z,4.26
2022-12-27T22:43:56.250Z,4.27
2022-12-27T22:46:23.554Z,4.28
2022-12-27T22:48:51.537Z,4.30
2022-12-27T22:51:27.241Z,4.28
2022-12-27T22:53:56.014Z,4.30
2022-12-27T22:56:30.948Z,4.32
2022-12-27T22:58:58.239Z,4.33
2022-12-27T23:01:30.332Z,4.32
2022-12-27T23:03:58.749Z,4.32
2022-12-27T23:06:26.011Z,4.33
2022-12-27T23:08:53.225Z,4.35
2022-12-27T23:11:24.261Z,4.36
2022-12-27T23:13:56.385Z,4.34
2022-12-27T23:16:23.147Z,4.36
2022-12-27T23:18:49.800Z,4.37
2022-12-27T23:21:21.165Z,4.39
2022-12-27T23:23:51.716Z,4.37
2022-12-27T23:26:21.259Z,4.43
2022-12-27T23:28:49.270Z,4.42
2022-12-27T23:31:16.341Z,4.44
2022-12-27T23:33:43.638Z,4.47
2022-12-27T23:36:10.990Z,4.51
2022-12-27T23:38:37.381Z,4.52
2022-12-27T23:41:06.162Z,4.52
2022-12-27T23:43:52.144Z,4.53
2022-12-27T23:46:27.583Z,4.56
2022-12-27T23:48:55.063Z,4.60
2022-12-27T23:51:22.464Z,4.60
2022-12-27T23:53:49.068Z,4.64
2022-12-27T23:56:17.557Z,4.68
2022-12-27T23:58:44.579Z,4.67
